Time,TemperatureF,DewpointF,PressureIn,WindDirection,WindDirectionDegrees,WindSpeedMPH,WindSpeedGustMPH,Humidity,HourlyPrecipIn,Conditions,Clouds,dailyrainin,SoftwareType,DateUTC
2013-08-01 00:12:00,69.4,67.0,29.93,WNW,297,3.0,5.0,93,0.00,,,0.00,weatherlink.com 1.10,2013-08-01 04:12:00,
2013-08-01 00:27:00,69.2,67.0,29.93,NW,316,3.0,7.0,93,0.00,,,0.00,weatherlink.com 1.10,2013-08-01 04:27:00,
2013-08-01 00:42:00,68.9,67.0,29.93,NNW,334,6.0,8.0,93,0.00,,,0.00,weatherlink.com 1.10,2013-08-01 04:42:00,
2013-08-01 00:57:00,68.5,67.0,29.93,NNW,333,2.0,5.0,93,0.00,,,0.00,weatherlink.com 1.10,2013-08-01 04:57:00,
2013-08-01 01:12:00,68.0,66.0,29.92,NNW,328,2.0,3.0,92,0.00,,,0.00,weatherlink.com 1.10,2013-08-01 05:12:00,
2013-08-01 01:27:00,67.3,65.0,29.92,NNW,333,3.0,4.0,93,0.00,,,0.00,weatherlink.com 1.10,2013-08-01 05:27:00,
2013-08-01 01:42:00,66.8,65.0,29.91,NW,316,1.0,4.0,93,0.00,,,0.00,weatherlink.com 1.10,2013-08-01 05:42:00,
2013-08-01 01:57:00,66.4,64.0,29.91,NW,310,2.0,3.0,93,0.00,,,0.00,weatherlink.com 1.10,2013-08-01 05:57:00,
2013-08-01 02:12:00,66.1,64.0,29.91,NW,316,3.0,4.0,93,0.00,,,0.00,weatherlink.com 1.10,2013-08-01 06:12:00,
2013-08-01 02:27:00,65.6,64.0,29.91,NW,321,2.0,4.0,93,0.00,,,0.00,weatherlink.com 1.10,2013-08-01 06:27:00,
2013-08-01 02:42:00,65.3,64.0,29.91,NW,305,3.0,4.0,94,0.00,,,0.00,weatherlink.com 1.10,2013-08-01 06:42:00,
2013-08-01 02:57:00,65.0,63.0,29.91,NW,323,3.0,4.0,94,0.00,,,0.00,weatherlink.com 1.10,2013-08-01 06:57:00,
2013-08-01 03:12:00,64.8,63.0,29.90,NW,322,3.0,4.0,94,0.00,,,0.00,weatherlink.com 1.10,2013-08-01 07:12:00,
2013-08-01 03:27:00,64.3,63.0,29.90,NW,315,4.0,4.0,94,0.00,,,0.00,weatherlink.com 1.10,2013-08-01 07:27:00,
2013-08-01 03:42:00,64.1,62.0,29.91,NW,321,3.0,5.0,94,0.00,,,0.00,weatherlink.com 1.10,2013-08-01 07:42:00,
2013-08-01 03:57:00,63.7,62.0,29.91,NW,314,2.0,4.0,94,0.00,,,0.00,weatherlink.com 1.10,2013-08-01 07:57:00,
2013-08-01 04:12:00,63.6,62.0,29.91,NW,311,2.0,4.0,95,0.00,,,0.00,weatherlink.com 1.10,2013-08-01 08:12:00,
2013-08-01 04:27:00,63.3,62.0,29.92,NW,317,2.0,4.0,95,0.00,,,0.00,weatherlink.com 1.10,2013-08-01 08:27:00,
2013-08-01 04:42:00,62.9,62.0,29.92,NW,304,1.0,2.0,95,0.00,,,0.00,weatherlink.com 1.10,2013-08-01 08:42:00,
2013-08-01 04:57:00,63.0,62.0,29.92,NW,305,2.0,3.0,95,0.00,,,0.00,weatherlink.com 1.10,2013-08-01 08:57:00,
2013-08-01 05:12:00,63.1,62.0,29.92,NW,307,3.0,3.0,95,0.00,,,0.00,weatherlink.com 1.10,2013-08-01 09:12:00,
2013-08-01 05:27:00,63.5,62.0,29.92,NW,307,2.0,4.0,95,0.00,,,0.00,weatherlink.com 1.10,2013-08-01 09:27:00,
2013-08-01 05:42:00,63.7,62.0,29.92,NW,307,0.0,2.0,95,0.00,,,0.00,weatherlink.com 1.10,2013-08-01 09:42:00,
2013-08-01 05:57:00,63.8,62.0,29.92,WNW,301,1.0,2.0,95,0.00,,,0.00,weatherlink.com 1.10,2013-08-01 09:57:00,
2013-08-01 06:28:00,64.5,63.0,29.93,NNW,332,3.0,8.0,95,0.00,,,0.00,weatherlink.com 1.10,2013-08-01 10:28:00,
2013-08-01 06:43:00,64.7,63.0,29.93,NW,320,4.0,7.0,95,0.00,,,0.00,weatherlink.com 1.10,2013-08-01 10:43:00,
2013-08-01 06:58:00,64.6,63.0,29.93,NNW,329,4.0,8.0,95,0.00,,,0.00,weatherlink.com 1.10,2013-08-01 10:58:00,
2013-08-01 07:13:00,64.1,63.0,29.93,NNW,338,4.0,8.0,95,0.00,,,0.00,weatherlink.com 1.10,2013-08-01 11:13:00,
2013-08-01 07:43:00,64.0,63.0,29.94,NW,314,5.0,7.0,95,0.00,,,0.00,weatherlink.com 1.10,2013-08-01 11:43:00,
2013-08-01 08:28:00,64.2,63.0,29.96,NW,323,3.0,6.0,94,0.00,,,0.00,weatherlink.com 1.10,2013-08-01 12:28:00,
2013-08-01 08:58:00,64.8,63.0,29.96,NW,314,3.0,6.0,93,0.00,,,0.00,weatherlink.com 1.10,2013-08-01 12:58:00,
2013-08-01 09:28:00,65.4,63.0,29.96,NW,321,3.0,6.0,91,0.00,,,0.00,weatherlink.com 1.10,2013-08-01 13:28:00,
2013-08-01 09:58:00,66.7,63.0,29.96,NNW,332,4.0,6.0,89,0.00,,,0.00,weatherlink.com 1.10,2013-08-01 13:58:00,
2013-08-01 10:13:00,67.6,64.0,29.96,NNE,25,4.0,7.0,87,0.00,,,0.00,weatherlink.com 1.10,2013-08-01 14:13:00,
2013-08-01 10:28:00,68.6,63.0,29.96,North,5,5.0,8.0,83,0.00,,,0.00,weatherlink.com 1.10,2013-08-01 14:28:00,
2013-08-01 11:13:00,70.8,64.0,29.96,North,11,4.0,8.0,78,0.00,,,0.00,weatherlink.com 1.10,2013-08-01 15:13:00,
2013-08-01 11:28:00,71.7,63.0,29.96,NW,317,6.0,10.0,74,0.00,,,0.00,weatherlink.com 1.10,2013-08-01 15:28:00,
2013-08-01 11:43:00,72.5,63.0,29.97,WNW,302,5.0,9.0,73,0.00,,,0.00,weatherlink.com 1.10,2013-08-01 15:43:00,
2013-08-01 12:13:00,74.2,63.0,29.96,WNW,301,6.0,12.0,68,0.00,,,0.00,weatherlink.com 1.10,2013-08-01 16:13:00,
2013-08-01 12:43:00,75.4,62.0,29.96,NNE,24,2.0,9.0,63,0.00,,,0.00,weatherlink.com 1.10,2013-08-01 16:43:00,
2013-08-01 12:58:00,75.9,62.0,29.96,NNW,343,9.0,11.0,62,0.00,,,0.00,weatherlink.com 1.10,2013-08-01 16:58:00,
2013-08-01 13:43:00,77.0,61.0,29.95,WNW,290,5.0,14.0,59,0.00,,,0.00,weatherlink.com 1.10,2013-08-01 17:43:00,
2013-08-01 13:59:00,77.3,63.0,29.95,WNW,300,5.0,12.0,61,0.00,,,0.00,weatherlink.com 1.10,2013-08-01 17:59:00,
2013-08-01 14:59:00,79.7,60.0,29.93,NW,304,8.0,18.0,52,0.00,,,0.00,weatherlink.com 1.10,2013-08-01 18:59:00,
2013-08-01 15:44:00,79.0,56.0,29.92,NW,323,11.0,23.0,46,0.00,,,0.00,weatherlink.com 1.10,2013-08-01 19:44:00,
2013-08-01 16:14:00,78.8,57.0,29.92,NW,305,13.0,20.0,48,0.00,,,0.00,weatherlink.com 1.10,2013-08-01 20:14:00,
2013-08-01 16:44:00,78.8,57.0,29.92,NW,325,12.0,22.0,48,0.00,,,0.00,weatherlink.com 1.10,2013-08-01 20:44:00,
2013-08-01 16:59:00,78.9,57.0,29.92,NW,321,11.0,20.0,47,0.00,,,0.00,weatherlink.com 1.10,2013-08-01 20:59:00,
2013-08-01 17:14:00,78.8,58.0,29.92,NW,308,6.0,20.0,49,0.00,,,0.00,weatherlink.com 1.10,2013-08-01 21:14:00,
2013-08-01 17:29:00,78.6,58.0,29.93,NW,316,9.0,22.0,49,0.00,,,0.00,weatherlink.com 1.10,2013-08-01 21:29:00,
2013-08-01 17:44:00,78.6,58.0,29.92,NW,321,13.0,20.0,50,0.00,,,0.00,weatherlink.com 1.10,2013-08-01 21:44:00,
2013-08-01 18:14:00,78.4,58.0,29.92,WNW,297,9.0,21.0,49,0.00,,,0.00,weatherlink.com 1.10,2013-08-01 22:14:00,
2013-08-01 18:29:00,78.5,57.0,29.92,NW,307,9.0,17.0,47,0.00,,,0.00,weatherlink.com 1.10,2013-08-01 22:29:00,
2013-08-01 18:44:00,77.9,56.0,29.92,NNW,335,12.0,21.0,47,0.00,,,0.00,weatherlink.com 1.10,2013-08-01 22:44:00,
2013-08-01 18:59:00,78.0,58.0,29.91,NW,326,7.0,15.0,51,0.00,,,0.00,weatherlink.com 1.10,2013-08-01 22:59:00,
2013-08-01 19:14:00,77.8,58.0,29.91,NW,325,11.0,11.0,51,0.00,,,0.00,weatherlink.com 1.10,2013-08-01 23:14:00,
2013-08-01 19:29:00,77.4,58.0,29.91,NW,312,10.0,14.0,51,0.00,,,0.00,weatherlink.com 1.10,2013-08-01 23:29:00,
2013-08-01 19:59:00,76.1,59.0,29.91,NNW,327,3.0,9.0,55,0.00,,,0.00,weatherlink.com 1.10,2013-08-01 23:59:00,
2013-08-01 20:29:00,73.7,59.0,29.91,NW,316,2.0,4.0,61,0.00,,,0.00,weatherlink.com 1.10,2013-08-02 00:29:00,
2013-08-01 20:44:00,73.0,60.0,29.91,NW,309,2.0,3.0,63,0.00,,,0.00,weatherlink.com 1.10,2013-08-02 00:44:00,
2013-08-01 20:59:00,71.7,59.0,29.91,NW,310,3.0,4.0,65,0.00,,,0.00,weatherlink.com 1.10,2013-08-02 00:59:00,
2013-08-01 21:14:00,70.7,59.0,29.92,NW,314,1.0,3.0,67,0.00,,,0.00,weatherlink.com 1.10,2013-08-02 01:14:00,
2013-08-01 21:29:00,70.7,59.0,29.92,NW,314,3.0,5.0,67,0.00,,,0.00,weatherlink.com 1.10,2013-08-02 01:29:00,
2013-08-01 21:44:00,70.1,59.0,29.93,NW,321,4.0,5.0,67,0.00,,,0.00,weatherlink.com 1.10,2013-08-02 01:44:00,
2013-08-01 21:59:00,69.9,59.0,29.92,NW,320,2.0,4.0,68,0.00,,,0.00,weatherlink.com 1.10,2013-08-02 01:59:00,
2013-08-01 22:14:00,69.4,59.0,29.93,NW,321,2.0,2.0,69,0.00,,,0.00,weatherlink.com 1.10,2013-08-02 02:14:00,
2013-08-01 22:29:00,68.5,59.0,29.93,NW,322,1.0,2.0,71,0.00,,,0.00,weatherlink.com 1.10,2013-08-02 02:29:00,
2013-08-01 22:44:00,67.6,58.0,29.93,NW,317,1.0,2.0,72,0.00,,,0.00,weatherlink.com 1.10,2013-08-02 02:44:00,
2013-08-01 22:59:00,67.1,58.0,29.93,NW,318,0.0,1.0,73,0.00,,,0.00,weatherlink.com 1.10,2013-08-02 02:59:00,
2013-08-01 23:29:00,66.2,58.0,29.93,NW,318,0.0,0.0,76,0.00,,,0.00,weatherlink.com 1.10,2013-08-02 03:29:00,
2013-08-01 23:44:00,66.1,58.0,29.93,NW,318,0.0,0.0,76,0.00,,,0.00,weatherlink.com 1.10,2013-08-02 03:44:00,